Eira — OJJP — position and weather

sailwx.info

Track history (hours):
 
Tides and Currents Weather Stations Pressure Air Temp Water Temp Dewpoint Dewpoint Depression Visibility Wind Speed Wind Dir Waves Ship Positions

Eira

Last reported at 2014-Oct-23 01:27 UTC. Time now 2014-Oct-23 08:45 UTC.
Position N 59°58' E 027°04'.

Length 157 m; draft 6.2 m.

Type: Cargo ship. MMSI: 230935000.

Date/timePositionNaut miles runAvg speedWind from/ knotsBaromVisibWave heightAir tempDewpointWater temp
2014-Oct-23 01:27N 59°58' E 027°04'1112.1
2014-Oct-23 00:32N 59°59' E 026°42'1212.0
2014-Oct-22 23:30N 59°57' E 026°18'5411.0
2014-Oct-22 18:33N 59°45' E 024°32'1410.5
2014-Oct-22 17:13N 59°42' E 024°05'810.8
2014-Oct-22 16:29N 59°40' E 023°50'1010.7
2014-Oct-22 15:32N 59°38' E 023°30'1110.9
2014-Oct-22 14:30N 59°38' E 023°08'3510.6
2014-Oct-22 11:14N 59°35' E 021°60'910.3
2014-Oct-22 10:22N 59°34' E 021°42'810.1
2014-Oct-22 09:33N 59°35' E 021°26'  
2014-Oct-19 09:31N 59°32' E 021°19'1010.5
2014-Oct-19 08:34N 59°32' E 021°39'10 9.5
2014-Oct-19 07:33N 59°33' E 021°58'4310.8
2014-Oct-19 03:33N 59°41' E 023°22'1010.4
2014-Oct-19 02:33N 59°43' E 023°42'1110.7
2014-Oct-19 01:34N 59°45' E 024°02'1311.4
2014-Oct-19 00:27N 59°48' E 024°27'6111.4
2014-Oct-18 19:05N 60°01' E 026°26'611.3
2014-Oct-18 18:33N 60°01' E 026°38'9 0.2
2014-Oct-17 04:28N 59°58' E 026°55'1111.7
2014-Oct-17 03:32N 59°59' E 026°33'1010.2
2014-Oct-17 02:33N 60°08' E 026°29'0 0.1
2014-Oct-17 01:31N 60°08' E 026°29'0 0.1
2014-Oct-17 00:29N 60°08' E 026°29'0 0.1
2014-Oct-16 23:32N 60°08' E 026°29'0 0.0
2014-Oct-16 22:31N 60°08' E 026°29'0 0.0
2014-Oct-16 21:31N 60°08' E 026°29'0 0.0
2014-Oct-16 20:31N 60°09' E 026°29'0 0.1
2014-Oct-16 19:31N 60°08' E 026°29'0 0.0
2014-Oct-16 18:26N 60°08' E 026°29'0 0.0
2014-Oct-16 17:23N 60°08' E 026°29'0 0.0
2014-Oct-16 16:32N 60°08' E 026°29'0 0.0
2014-Oct-16 15:32N 60°08' E 026°29'0 0.0
2014-Oct-16 14:32N 60°08' E 026°29'0 0.0
2014-Oct-16 13:28N 60°08' E 026°29'0 0.0
2014-Oct-16 12:32N 60°08' E 026°29'0 0.0
2014-Oct-16 11:26N 60°08' E 026°29'0 0.0
2014-Oct-16 10:32N 60°08' E 026°29'0 0.0
2014-Oct-16 09:32N 60°08' E 026°29'0 0.0
2014-Oct-16 08:32N 60°08' E 026°29'0 0.0
2014-Oct-16 07:32N 60°08' E 026°29'0 0.0
2014-Oct-16 06:32N 60°08' E 026°29'0 0.1
2014-Oct-16 05:32N 60°08' E 026°29'1 0.6
2014-Oct-16 04:32N 60°08' E 026°28'0 0.0
2014-Oct-16 03:32N 60°08' E 026°28'0 0.0
2014-Oct-16 02:29N 60°08' E 026°28'0 0.0
2014-Oct-16 01:32N 60°08' E 026°28'0 0.0
2014-Oct-16 00:32N 60°08' E 026°28'0 0.0
2014-Oct-15 23:26N 60°08' E 026°28'0 0.0
2014-Oct-15 22:32N 60°08' E 026°28'0 0.0
2014-Oct-15 21:32N 60°08' E 026°28'0 0.0
2014-Oct-15 20:32N 60°08' E 026°28'0 0.0
2014-Oct-15 19:32N 60°08' E 026°28'0 0.0
2014-Oct-15 18:32N 60°08' E 026°28'1 0.6
2014-Oct-15 17:32N 60°08' E 026°29'1212.4
2014-Oct-15 16:33N 60°02' E 026°50'10111.1
2014-Oct-15 07:28N 59°53' E 030°11'0 0.1
2014-Oct-15 05:04N 59°53' E 030°11'0 0.0
2014-Oct-15 04:25N 59°53' E 030°11'0 0.0
2014-Oct-15 03:22N 59°53' E 030°11'0 0.0
2014-Oct-15 02:28N 59°53' E 030°11'0 0.0
2014-Oct-15 01:31N 59°53' E 030°11'0 0.0
2014-Oct-15 00:31N 59°53' E 030°11'0 0.0
2014-Oct-14 23:31N 59°53' E 030°11'0 0.0
2014-Oct-14 22:28N 59°53' E 030°11'0 0.0
2014-Oct-14 16:25N 59°53' E 030°11'0 0.0
2014-Oct-14 15:28N 59°53' E 030°11'0 0.0
2014-Oct-14 14:31N 59°53' E 030°11'0 0.0
2014-Oct-14 13:31N 59°53' E 030°11'0 0.0
2014-Oct-14 12:31N 59°53' E 030°11'0 0.0
2014-Oct-14 11:28N 59°53' E 030°11'0 0.0
2014-Oct-14 07:25N 59°53' E 030°11'0 0.0
2014-Oct-14 05:19N 59°53' E 030°11'0 0.1
2014-Oct-14 03:33N 59°53' E 030°11'95 7.1
2014-Oct-13 14:09N 59°58' E 027°02'712.2
2014-Oct-13 13:33N 59°59' E 026°48'11 9.5
2014-Oct-13 12:22N 60°04' E 026°28'5 5.7
2014-Oct-13 11:33N 60°09' E 026°29'0 0.0
2014-Oct-13 10:33N 60°09' E 026°29'0 0.0
2014-Oct-13 09:33N 60°09' E 026°29'0 0.0
2014-Oct-13 08:33N 60°09' E 026°29'0 0.0
2014-Oct-13 07:33N 60°09' E 026°29'0 0.0
2014-Oct-13 06:33N 60°09' E 026°29'0 0.0
2014-Oct-13 05:33N 60°09' E 026°29'0 0.1
2014-Oct-13 04:30N 60°09' E 026°29'0 0.0
2014-Oct-13 03:33N 60°09' E 026°29'0 0.1
2014-Oct-13 02:33N 60°09' E 026°29'0 0.0
2014-Oct-13 01:33N 60°09' E 026°29'  
Track history (hours):
 
Tides and Currents Weather Stations Pressure Air Temp Water Temp Dewpoint Dewpoint Depression Visibility Wind Speed Wind Dir Waves Ship Positions

Eira

Last reported at 2014-Oct-23 01:27 UTC. Time now 2014-Oct-23 08:45 UTC.
Position N 59°58' E 027°04'.

Length 157 m; draft 6.2 m.

Type: Cargo ship. MMSI: 230935000.

Date/timePositionNaut miles runAvg speedWind from/ knotsBaromVisibWave heightAir tempDewpointWater temp
2014-Oct-23 01:27N 59°58' E 027°04'1112.1
2014-Oct-23 00:32N 59°59' E 026°42'1212.0
2014-Oct-22 23:30N 59°57' E 026°18'5411.0
2014-Oct-22 18:33N 59°45' E 024°32'1410.5
2014-Oct-22 17:13N 59°42' E 024°05'810.8
2014-Oct-22 16:29N 59°40' E 023°50'1010.7
2014-Oct-22 15:32N 59°38' E 023°30'1110.9
2014-Oct-22 14:30N 59°38' E 023°08'3510.6
2014-Oct-22 11:14N 59°35' E 021°60'910.3
2014-Oct-22 10:22N 59°34' E 021°42'810.1
2014-Oct-22 09:33N 59°35' E 021°26'  
2014-Oct-19 09:31N 59°32' E 021°19'1010.5
2014-Oct-19 08:34N 59°32' E 021°39'10 9.5
2014-Oct-19 07:33N 59°33' E 021°58'4310.8
2014-Oct-19 03:33N 59°41' E 023°22'1010.4
2014-Oct-19 02:33N 59°43' E 023°42'1110.7
2014-Oct-19 01:34N 59°45' E 024°02'1311.4
2014-Oct-19 00:27N 59°48' E 024°27'6111.4
2014-Oct-18 19:05N 60°01' E 026°26'611.3
2014-Oct-18 18:33N 60°01' E 026°38'9 0.2
2014-Oct-17 04:28N 59°58' E 026°55'1111.7
2014-Oct-17 03:32N 59°59' E 026°33'1010.2
2014-Oct-17 02:33N 60°08' E 026°29'0 0.1
2014-Oct-17 01:31N 60°08' E 026°29'0 0.1
2014-Oct-17 00:29N 60°08' E 026°29'0 0.1
2014-Oct-16 23:32N 60°08' E 026°29'0 0.0
2014-Oct-16 22:31N 60°08' E 026°29'0 0.0
2014-Oct-16 21:31N 60°08' E 026°29'0 0.0
2014-Oct-16 20:31N 60°09' E 026°29'0 0.1
2014-Oct-16 19:31N 60°08' E 026°29'0 0.0
2014-Oct-16 18:26N 60°08' E 026°29'0 0.0
2014-Oct-16 17:23N 60°08' E 026°29'0 0.0
2014-Oct-16 16:32N 60°08' E 026°29'0 0.0
2014-Oct-16 15:32N 60°08' E 026°29'0 0.0
2014-Oct-16 14:32N 60°08' E 026°29'0 0.0
2014-Oct-16 13:28N 60°08' E 026°29'0 0.0
2014-Oct-16 12:32N 60°08' E 026°29'0 0.0
2014-Oct-16 11:26N 60°08' E 026°29'0 0.0
2014-Oct-16 10:32N 60°08' E 026°29'0 0.0
2014-Oct-16 09:32N 60°08' E 026°29'0 0.0
2014-Oct-16 08:32N 60°08' E 026°29'0 0.0
2014-Oct-16 07:32N 60°08' E 026°29'0 0.0
2014-Oct-16 06:32N 60°08' E 026°29'0 0.1
2014-Oct-16 05:32N 60°08' E 026°29'1 0.6
2014-Oct-16 04:32N 60°08' E 026°28'0 0.0
2014-Oct-16 03:32N 60°08' E 026°28'0 0.0
2014-Oct-16 02:29N 60°08' E 026°28'0 0.0
2014-Oct-16 01:32N 60°08' E 026°28'0 0.0
2014-Oct-16 00:32N 60°08' E 026°28'0 0.0
2014-Oct-15 23:26N 60°08' E 026°28'0 0.0
2014-Oct-15 22:32N 60°08' E 026°28'0 0.0
2014-Oct-15 21:32N 60°08' E 026°28'0 0.0
2014-Oct-15 20:32N 60°08' E 026°28'0 0.0
2014-Oct-15 19:32N 60°08' E 026°28'0 0.0
2014-Oct-15 18:32N 60°08' E 026°28'1 0.6
2014-Oct-15 17:32N 60°08' E 026°29'1212.4
2014-Oct-15 16:33N 60°02' E 026°50'10111.1
2014-Oct-15 07:28N 59°53' E 030°11'0 0.1
2014-Oct-15 05:04N 59°53' E 030°11'0 0.0
2014-Oct-15 04:25N 59°53' E 030°11'0 0.0
2014-Oct-15 03:22N 59°53' E 030°11'0 0.0
2014-Oct-15 02:28N 59°53' E 030°11'0 0.0
2014-Oct-15 01:31N 59°53' E 030°11'0 0.0
2014-Oct-15 00:31N 59°53' E 030°11'0 0.0
2014-Oct-14 23:31N 59°53' E 030°11'0 0.0
2014-Oct-14 22:28N 59°53' E 030°11'0 0.0
2014-Oct-14 16:25N 59°53' E 030°11'0 0.0
2014-Oct-14 15:28N 59°53' E 030°11'0 0.0
2014-Oct-14 14:31N 59°53' E 030°11'0 0.0
2014-Oct-14 13:31N 59°53' E 030°11'0 0.0
2014-Oct-14 12:31N 59°53' E 030°11'0 0.0
2014-Oct-14 11:28N 59°53' E 030°11'0 0.0
2014-Oct-14 07:25N 59°53' E 030°11'0 0.0
2014-Oct-14 05:19N 59°53' E 030°11'0 0.1
2014-Oct-14 03:33N 59°53' E 030°11'95 7.1
2014-Oct-13 14:09N 59°58' E 027°02'712.2
2014-Oct-13 13:33N 59°59' E 026°48'11 9.5
2014-Oct-13 12:22N 60°04' E 026°28'5 5.7
2014-Oct-13 11:33N 60°09' E 026°29'0 0.0
2014-Oct-13 10:33N 60°09' E 026°29'0 0.0
2014-Oct-13 09:33N 60°09' E 026°29'0 0.0
2014-Oct-13 08:33N 60°09' E 026°29'0 0.0
2014-Oct-13 07:33N 60°09' E 026°29'0 0.0
2014-Oct-13 06:33N 60°09' E 026°29'0 0.0
2014-Oct-13 05:33N 60°09' E 026°29'0 0.1
2014-Oct-13 04:30N 60°09' E 026°29'0 0.0
2014-Oct-13 03:33N 60°09' E 026°29'0 0.1
2014-Oct-13 02:33N 60°09' E 026°29'0 0.0
2014-Oct-13 01:33N 60°09' E 026°29'  

Dump ship's entire track history